Morning Linda — 3ETI — position and weather

sailwx.info

Track history (hours):
 
Tides and Currents Weather Stations Pressure Air Temp Water Temp Dewpoint Dewpoint Depression Visibility Wind Speed Wind Dir Waves Ship Positions

Morning Linda

Last reported at 2018-Jun-19 15:05 UTC. Time now 2018-Jun-20 19:07 UTC.
Position N 09°11' W 079°52'.

Length 232 m; draft 7.8 m.

MMSI: 370567000.

Date/timePositionNaut miles runAvg speedWind from/ knotsBaromVisibWave heightAir tempDewpointWater temp
2018-Jun-19 15:05N 09°11' W 079°52'1 7.4
2018-Jun-19 14:59N 09°11' W 079°53'4 6.4
2018-Jun-19 14:18N 09°14' W 079°55'1 3.8
2018-Jun-19 13:59N 09°16' W 079°55'0 0.7
2018-Jun-19 13:28N 09°16' W 079°55'0 0.6
2018-Jun-19 13:00N 09°16' W 079°55'0 0.3
2018-Jun-19 12:29N 09°16' W 079°55'0 0.5
2018-Jun-19 12:00N 09°17' W 079°55'1 1.0
2018-Jun-19 11:29N 09°17' W 079°55'1 1.6
2018-Jun-19 11:00N 09°18' W 079°55'2 4.6
2018-Jun-19 10:30N 09°20' W 079°55'3 5.3
2018-Jun-19 10:00N 09°23' W 079°55'4 7.7
2018-Jun-19 09:30N 09°27' W 079°55'2 4.0
2018-Jun-19 09:00N 09°28' W 079°53'0 0.8
2018-Jun-19 08:30N 09°28' W 079°54'1 1.1
2018-Jun-19 08:00N 09°27' W 079°54'2 3.6
2018-Jun-19 07:30N 09°26' W 079°54'4 7.4
2018-Jun-19 07:00N 09°22' W 079°53'0 0.6
2018-Jun-19 06:28N 09°22' W 079°53'0 0.0
2018-Jun-19 05:58N 09°22' W 079°53'0 0.0
2018-Jun-19 05:28N 09°22' W 079°53'0 0.0
2018-Jun-19 04:58N 09°22' W 079°53'0 0.0
2018-Jun-19 04:28N 09°22' W 079°53'0 0.0
2018-Jun-19 03:58N 09°22' W 079°53'0 0.0
2018-Jun-19 03:28N 09°22' W 079°53'0 0.0
2018-Jun-19 02:58N 09°22' W 079°53'0 0.0
2018-Jun-19 02:28N 09°22' W 079°53'0 0.0
2018-Jun-19 01:58N 09°22' W 079°53'0 0.0
2018-Jun-19 01:28N 09°22' W 079°53'0 0.0
2018-Jun-19 00:58N 09°22' W 079°53'0 0.0
2018-Jun-19 00:28N 09°22' W 079°53'0 0.0
2018-Jun-18 23:58N 09°22' W 079°53'0 0.0
2018-Jun-18 23:28N 09°22' W 079°53'0 0.0
2018-Jun-18 22:58N 09°22' W 079°53'0 0.0
2018-Jun-18 22:28N 09°22' W 079°53'0 0.0
2018-Jun-18 21:58N 09°22' W 079°53'0 0.0
2018-Jun-18 21:28N 09°22' W 079°53'0 0.0
2018-Jun-18 20:58N 09°22' W 079°53'0 0.0
2018-Jun-18 20:28N 09°22' W 079°53'0 0.0
2018-Jun-18 19:58N 09°22' W 079°53'0 0.0
2018-Jun-18 19:28N 09°22' W 079°53'0 0.0
2018-Jun-18 18:58N 09°22' W 079°53'0 0.0
2018-Jun-18 18:28N 09°22' W 079°53'0 0.0
2018-Jun-18 17:58N 09°22' W 079°53'0 0.0
2018-Jun-18 17:28N 09°22' W 079°53'0 0.0
2018-Jun-18 16:58N 09°22' W 079°53'0 0.0
2018-Jun-18 16:28N 09°22' W 079°53'0 0.0
2018-Jun-18 15:58N 09°22' W 079°53'0 0.0
2018-Jun-18 15:28N 09°22' W 079°53'0 0.0
2018-Jun-18 14:58N 09°22' W 079°53'0 0.0
2018-Jun-18 14:28N 09°22' W 079°53'0 0.0
2018-Jun-18 13:58N 09°22' W 079°53'0 0.0
2018-Jun-18 13:28N 09°22' W 079°53'0 0.0
2018-Jun-18 12:58N 09°22' W 079°53'0 0.0
2018-Jun-18 12:28N 09°22' W 079°53'0 0.0
2018-Jun-18 11:58N 09°22' W 079°53'0 0.0
2018-Jun-18 11:25N 09°22' W 079°53'0 0.0
2018-Jun-18 10:58N 09°22' W 079°53'0 0.0
2018-Jun-18 10:28N 09°22' W 079°53'0 0.0
2018-Jun-18 09:58N 09°22' W 079°53'0 0.0
2018-Jun-18 09:31N 09°22' W 079°53'0 1.0
2018-Jun-18 09:00N 09°22' W 079°54'3 6.7
2018-Jun-18 08:30N 09°26' W 079°54'0 1.0
2018-Jun-18 08:00N 09°26' W 079°54'1 2.2
2018-Jun-18 07:30N 09°26' W 079°53'0 0.1
2018-Jun-18 07:00N 09°26' W 079°53'0 0.0
2018-Jun-18 06:30N 09°26' W 079°53'0 0.0
2018-Jun-18 06:00N 09°26' W 079°53'0 0.0
2018-Jun-18 05:31N 09°26' W 079°53'0 0.0
2018-Jun-18 04:59N 09°26' W 079°53'0 0.2
2018-Jun-18 04:30N 09°26' W 079°53'  
2018-Jun-13 09:13N 37°45' W 076°11'418.0
2018-Jun-13 09:00N 37°49' W 076°10'1217.2
2018-Jun-13 08:19N 38°00' W 076°12'617.2
2018-Jun-13 07:59N 38°06' W 076°13'3916.3
2018-Jun-13 05:35N 38°44' W 076°26'116.6
2018-Jun-13 05:30N 38°45' W 076°26'816.9
2018-Jun-13 05:01N 38°53' W 076°24'815.9
2018-Jun-13 04:30N 39°01' W 076°23'713.7
2018-Jun-13 04:00N 39°08' W 076°24'611.5
2018-Jun-13 03:30N 39°12' W 076°30'3 6.8
2018-Jun-13 03:00N 39°15' W 076°32'0 0.2
2018-Jun-13 02:30N 39°15' W 076°32'0 0.0
2018-Jun-13 02:00N 39°15' W 076°32'0 0.0
2018-Jun-13 01:30N 39°15' W 076°32'0 0.0
2018-Jun-13 01:00N 39°15' W 076°32'0 0.0
2018-Jun-13 00:30N 39°15' W 076°32'0 0.0
2018-Jun-13 00:00N 39°15' W 076°32'0 0.0
2018-Jun-12 23:30N 39°15' W 076°32'0 0.0
2018-Jun-12 23:00N 39°15' W 076°32'0 0.0
2018-Jun-12 22:30N 39°15' W 076°32'0 0.0
2018-Jun-12 22:00N 39°15' W 076°32'0 0.0
2018-Jun-12 21:30N 39°15' W 076°32'0 0.0
2018-Jun-12 21:00N 39°15' W 076°32'0 0.0
2018-Jun-12 20:30N 39°15' W 076°32'0 0.0
2018-Jun-12 20:00N 39°15' W 076°32'0 0.0
2018-Jun-12 19:30N 39°15' W 076°32'0 0.0
2018-Jun-12 19:00N 39°15' W 076°32'0 0.0
2018-Jun-12 18:30N 39°15' W 076°32'0 0.0
2018-Jun-12 18:00N 39°15' W 076°32'1 2.0
2018-Jun-12 17:30N 39°15' W 076°34'1 1.8
2018-Jun-12 16:58N 39°15' W 076°35'0 0.0
2018-Jun-12 16:28N 39°15' W 076°35'0 0.0
2018-Jun-12 15:58N 39°15' W 076°35'0 0.0
2018-Jun-12 15:28N 39°15' W 076°35'0 0.0
2018-Jun-12 14:58N 39°15' W 076°35'0 0.0
2018-Jun-12 14:28N 39°15' W 076°35'0 0.0
2018-Jun-12 13:58N 39°15' W 076°35'0 0.0
2018-Jun-12 13:28N 39°15' W 076°35'0 0.0
2018-Jun-12 12:58N 39°15' W 076°35'0 0.0
2018-Jun-12 12:28N 39°15' W 076°35'0 0.0
2018-Jun-12 11:58N 39°15' W 076°35'0 0.0
2018-Jun-12 11:28N 39°15' W 076°35'0 0.0
2018-Jun-12 10:58N 39°15' W 076°35'0 0.0
2018-Jun-12 10:28N 39°15' W 076°35'0 0.0
2018-Jun-12 09:58N 39°15' W 076°35'0 0.0
2018-Jun-12 09:28N 39°15' W 076°35'0 0.0
2018-Jun-12 08:58N 39°15' W 076°35'0 0.0
2018-Jun-12 08:28N 39°15' W 076°35'0 0.0
2018-Jun-12 07:58N 39°15' W 076°35'0 0.0
2018-Jun-12 07:28N 39°15' W 076°35'0 0.0
2018-Jun-12 06:58N 39°15' W 076°35'0 0.0
2018-Jun-12 06:28N 39°15' W 076°35'0 0.0
2018-Jun-12 05:58N 39°15' W 076°35'0 0.0
2018-Jun-12 05:28N 39°15' W 076°35'0 0.0
2018-Jun-12 04:58N 39°15' W 076°35'0 0.0
2018-Jun-12 04:28N 39°15' W 076°35'0 0.0
2018-Jun-12 03:58N 39°15' W 076°35'0 0.0
2018-Jun-12 03:28N 39°15' W 076°35'0 0.0
2018-Jun-12 02:58N 39°15' W 076°35'0 0.0
2018-Jun-12 02:28N 39°15' W 076°35'0 0.0
2018-Jun-12 01:58N 39°15' W 076°35'0 0.0
2018-Jun-12 01:28N 39°15' W 076°35'0 0.0
2018-Jun-12 00:58N 39°15' W 076°35'0 0.0
2018-Jun-12 00:28N 39°15' W 076°35'0 0.0
2018-Jun-11 23:58N 39°15' W 076°35'0 0.0
2018-Jun-11 23:28N 39°15' W 076°35'0 0.0
2018-Jun-11 22:58N 39°15' W 076°35'0 0.0
2018-Jun-11 22:28N 39°15' W 076°35'0 0.6
2018-Jun-11 22:00N 39°15' W 076°35'3 6.6
2018-Jun-11 21:30N 39°13' W 076°32'510.4
2018-Jun-11 21:00N 39°10' W 076°26'713.6
2018-Jun-11 20:30N 39°04' W 076°24'815.7
2018-Jun-11 20:01N 38°56' W 076°23'917.0
2018-Jun-11 19:30N 38°48' W 076°25'4716.4
2018-Jun-11 16:38N 38°01' W 076°13'  
Track history (hours):
 
Tides and Currents Weather Stations Pressure Air Temp Water Temp Dewpoint Dewpoint Depression Visibility Wind Speed Wind Dir Waves Ship Positions

Morning Linda

Last reported at 2018-Jun-19 15:05 UTC. Time now 2018-Jun-20 19:07 UTC.
Position N 09°11' W 079°52'.

Length 232 m; draft 7.8 m.

MMSI: 370567000.

Date/timePositionNaut miles runAvg speedWind from/ knotsBaromVisibWave heightAir tempDewpointWater temp
2018-Jun-19 15:05N 09°11' W 079°52'1 7.4
2018-Jun-19 14:59N 09°11' W 079°53'4 6.4
2018-Jun-19 14:18N 09°14' W 079°55'1 3.8
2018-Jun-19 13:59N 09°16' W 079°55'0 0.7
2018-Jun-19 13:28N 09°16' W 079°55'0 0.6
2018-Jun-19 13:00N 09°16' W 079°55'0 0.3
2018-Jun-19 12:29N 09°16' W 079°55'0 0.5
2018-Jun-19 12:00N 09°17' W 079°55'1 1.0
2018-Jun-19 11:29N 09°17' W 079°55'1 1.6
2018-Jun-19 11:00N 09°18' W 079°55'2 4.6
2018-Jun-19 10:30N 09°20' W 079°55'3 5.3
2018-Jun-19 10:00N 09°23' W 079°55'4 7.7
2018-Jun-19 09:30N 09°27' W 079°55'2 4.0
2018-Jun-19 09:00N 09°28' W 079°53'0 0.8
2018-Jun-19 08:30N 09°28' W 079°54'1 1.1
2018-Jun-19 08:00N 09°27' W 079°54'2 3.6
2018-Jun-19 07:30N 09°26' W 079°54'4 7.4
2018-Jun-19 07:00N 09°22' W 079°53'0 0.6
2018-Jun-19 06:28N 09°22' W 079°53'0 0.0
2018-Jun-19 05:58N 09°22' W 079°53'0 0.0
2018-Jun-19 05:28N 09°22' W 079°53'0 0.0
2018-Jun-19 04:58N 09°22' W 079°53'0 0.0
2018-Jun-19 04:28N 09°22' W 079°53'0 0.0
2018-Jun-19 03:58N 09°22' W 079°53'0 0.0
2018-Jun-19 03:28N 09°22' W 079°53'0 0.0
2018-Jun-19 02:58N 09°22' W 079°53'0 0.0
2018-Jun-19 02:28N 09°22' W 079°53'0 0.0
2018-Jun-19 01:58N 09°22' W 079°53'0 0.0
2018-Jun-19 01:28N 09°22' W 079°53'0 0.0
2018-Jun-19 00:58N 09°22' W 079°53'0 0.0
2018-Jun-19 00:28N 09°22' W 079°53'0 0.0
2018-Jun-18 23:58N 09°22' W 079°53'0 0.0
2018-Jun-18 23:28N 09°22' W 079°53'0 0.0
2018-Jun-18 22:58N 09°22' W 079°53'0 0.0
2018-Jun-18 22:28N 09°22' W 079°53'0 0.0
2018-Jun-18 21:58N 09°22' W 079°53'0 0.0
2018-Jun-18 21:28N 09°22' W 079°53'0 0.0
2018-Jun-18 20:58N 09°22' W 079°53'0 0.0
2018-Jun-18 20:28N 09°22' W 079°53'0 0.0
2018-Jun-18 19:58N 09°22' W 079°53'0 0.0
2018-Jun-18 19:28N 09°22' W 079°53'0 0.0
2018-Jun-18 18:58N 09°22' W 079°53'0 0.0
2018-Jun-18 18:28N 09°22' W 079°53'0 0.0
2018-Jun-18 17:58N 09°22' W 079°53'0 0.0
2018-Jun-18 17:28N 09°22' W 079°53'0 0.0
2018-Jun-18 16:58N 09°22' W 079°53'0 0.0
2018-Jun-18 16:28N 09°22' W 079°53'0 0.0
2018-Jun-18 15:58N 09°22' W 079°53'0 0.0
2018-Jun-18 15:28N 09°22' W 079°53'0 0.0
2018-Jun-18 14:58N 09°22' W 079°53'0 0.0
2018-Jun-18 14:28N 09°22' W 079°53'0 0.0
2018-Jun-18 13:58N 09°22' W 079°53'0 0.0
2018-Jun-18 13:28N 09°22' W 079°53'0 0.0
2018-Jun-18 12:58N 09°22' W 079°53'0 0.0
2018-Jun-18 12:28N 09°22' W 079°53'0 0.0
2018-Jun-18 11:58N 09°22' W 079°53'0 0.0
2018-Jun-18 11:25N 09°22' W 079°53'0 0.0
2018-Jun-18 10:58N 09°22' W 079°53'0 0.0
2018-Jun-18 10:28N 09°22' W 079°53'0 0.0
2018-Jun-18 09:58N 09°22' W 079°53'0 0.0
2018-Jun-18 09:31N 09°22' W 079°53'0 1.0
2018-Jun-18 09:00N 09°22' W 079°54'3 6.7
2018-Jun-18 08:30N 09°26' W 079°54'0 1.0
2018-Jun-18 08:00N 09°26' W 079°54'1 2.2
2018-Jun-18 07:30N 09°26' W 079°53'0 0.1
2018-Jun-18 07:00N 09°26' W 079°53'0 0.0
2018-Jun-18 06:30N 09°26' W 079°53'0 0.0
2018-Jun-18 06:00N 09°26' W 079°53'0 0.0
2018-Jun-18 05:31N 09°26' W 079°53'0 0.0
2018-Jun-18 04:59N 09°26' W 079°53'0 0.2
2018-Jun-18 04:30N 09°26' W 079°53'  
2018-Jun-13 09:13N 37°45' W 076°11'418.0
2018-Jun-13 09:00N 37°49' W 076°10'1217.2
2018-Jun-13 08:19N 38°00' W 076°12'617.2
2018-Jun-13 07:59N 38°06' W 076°13'3916.3
2018-Jun-13 05:35N 38°44' W 076°26'116.6
2018-Jun-13 05:30N 38°45' W 076°26'816.9
2018-Jun-13 05:01N 38°53' W 076°24'815.9
2018-Jun-13 04:30N 39°01' W 076°23'713.7
2018-Jun-13 04:00N 39°08' W 076°24'611.5
2018-Jun-13 03:30N 39°12' W 076°30'3 6.8
2018-Jun-13 03:00N 39°15' W 076°32'0 0.2
2018-Jun-13 02:30N 39°15' W 076°32'0 0.0
2018-Jun-13 02:00N 39°15' W 076°32'0 0.0
2018-Jun-13 01:30N 39°15' W 076°32'0 0.0
2018-Jun-13 01:00N 39°15' W 076°32'0 0.0
2018-Jun-13 00:30N 39°15' W 076°32'0 0.0
2018-Jun-13 00:00N 39°15' W 076°32'0 0.0
2018-Jun-12 23:30N 39°15' W 076°32'0 0.0
2018-Jun-12 23:00N 39°15' W 076°32'0 0.0
2018-Jun-12 22:30N 39°15' W 076°32'0 0.0
2018-Jun-12 22:00N 39°15' W 076°32'0 0.0
2018-Jun-12 21:30N 39°15' W 076°32'0 0.0
2018-Jun-12 21:00N 39°15' W 076°32'0 0.0
2018-Jun-12 20:30N 39°15' W 076°32'0 0.0
2018-Jun-12 20:00N 39°15' W 076°32'0 0.0
2018-Jun-12 19:30N 39°15' W 076°32'0 0.0
2018-Jun-12 19:00N 39°15' W 076°32'0 0.0
2018-Jun-12 18:30N 39°15' W 076°32'0 0.0
2018-Jun-12 18:00N 39°15' W 076°32'1 2.0
2018-Jun-12 17:30N 39°15' W 076°34'1 1.8
2018-Jun-12 16:58N 39°15' W 076°35'0 0.0
2018-Jun-12 16:28N 39°15' W 076°35'0 0.0
2018-Jun-12 15:58N 39°15' W 076°35'0 0.0
2018-Jun-12 15:28N 39°15' W 076°35'0 0.0
2018-Jun-12 14:58N 39°15' W 076°35'0 0.0
2018-Jun-12 14:28N 39°15' W 076°35'0 0.0
2018-Jun-12 13:58N 39°15' W 076°35'0 0.0
2018-Jun-12 13:28N 39°15' W 076°35'0 0.0
2018-Jun-12 12:58N 39°15' W 076°35'0 0.0
2018-Jun-12 12:28N 39°15' W 076°35'0 0.0
2018-Jun-12 11:58N 39°15' W 076°35'0 0.0
2018-Jun-12 11:28N 39°15' W 076°35'0 0.0
2018-Jun-12 10:58N 39°15' W 076°35'0 0.0
2018-Jun-12 10:28N 39°15' W 076°35'0 0.0
2018-Jun-12 09:58N 39°15' W 076°35'0 0.0
2018-Jun-12 09:28N 39°15' W 076°35'0 0.0
2018-Jun-12 08:58N 39°15' W 076°35'0 0.0
2018-Jun-12 08:28N 39°15' W 076°35'0 0.0
2018-Jun-12 07:58N 39°15' W 076°35'0 0.0
2018-Jun-12 07:28N 39°15' W 076°35'0 0.0
2018-Jun-12 06:58N 39°15' W 076°35'0 0.0
2018-Jun-12 06:28N 39°15' W 076°35'0 0.0
2018-Jun-12 05:58N 39°15' W 076°35'0 0.0
2018-Jun-12 05:28N 39°15' W 076°35'0 0.0
2018-Jun-12 04:58N 39°15' W 076°35'0 0.0
2018-Jun-12 04:28N 39°15' W 076°35'0 0.0
2018-Jun-12 03:58N 39°15' W 076°35'0 0.0
2018-Jun-12 03:28N 39°15' W 076°35'0 0.0
2018-Jun-12 02:58N 39°15' W 076°35'0 0.0
2018-Jun-12 02:28N 39°15' W 076°35'0 0.0
2018-Jun-12 01:58N 39°15' W 076°35'0 0.0
2018-Jun-12 01:28N 39°15' W 076°35'0 0.0
2018-Jun-12 00:58N 39°15' W 076°35'0 0.0
2018-Jun-12 00:28N 39°15' W 076°35'0 0.0
2018-Jun-11 23:58N 39°15' W 076°35'0 0.0
2018-Jun-11 23:28N 39°15' W 076°35'0 0.0
2018-Jun-11 22:58N 39°15' W 076°35'0 0.0
2018-Jun-11 22:28N 39°15' W 076°35'0 0.6
2018-Jun-11 22:00N 39°15' W 076°35'3 6.6
2018-Jun-11 21:30N 39°13' W 076°32'510.4
2018-Jun-11 21:00N 39°10' W 076°26'713.6
2018-Jun-11 20:30N 39°04' W 076°24'815.7
2018-Jun-11 20:01N 38°56' W 076°23'917.0
2018-Jun-11 19:30N 38°48' W 076°25'4716.4
2018-Jun-11 16:38N 38°01' W 076°13'  

Dump ship's entire track history